sensor_id;sensor_type;location;lat;lon;timestamp;temperature;humidity
3310;DHT22;1667;53.238;10.394;2023-02-27T00:02:27;3.90;99.90
3310;DHT22;1667;53.238;10.394;2023-02-27T00:07:27;3.80;99.90
3310;DHT22;1667;53.238;10.394;2023-02-27T00:12:27;3.70;99.90
3310;DHT22;1667;53.238;10.394;2023-02-27T00:17:26;3.70;99.90
3310;DHT22;1667;53.238;10.394;2023-02-27T00:22:27;3.70;99.90
3310;DHT22;1667;53.238;10.394;2023-02-27T00:27:25;3.70;99.90
3310;DHT22;1667;53.238;10.394;2023-02-27T00:32:24;4.00;99.90
3310;DHT22;1667;53.238;10.394;2023-02-27T00:37:23;3.70;99.90
3310;DHT22;1667;53.238;10.394;2023-02-27T00:42:23;3.70;99.90
3310;DHT22;1667;53.238;10.394;2023-02-27T00:47:22;3.50;99.90
3310;DHT22;1667;53.238;10.394;2023-02-27T00:52:22;3.50;99.90
3310;DHT22;1667;53.238;10.394;2023-02-27T00:57:22;3.80;99.90
3310;DHT22;1667;53.238;10.394;2023-02-27T01:02:21;3.50;99.90
3310;DHT22;1667;53.238;10.394;2023-02-27T01:07:19;3.40;99.90
3310;DHT22;1667;53.238;10.394;2023-02-27T01:12:18;3.50;99.90
3310;DHT22;1667;53.238;10.394;2023-02-27T01:17:18;3.40;99.90
3310;DHT22;1667;53.238;10.394;2023-02-27T01:22:16;3.30;99.90
3310;DHT22;1667;53.238;10.394;2023-02-27T01:27:15;3.30;99.90
3310;DHT22;1667;53.238;10.394;2023-02-27T01:32:13;3.30;99.90
3310;DHT22;1667;53.238;10.394;2023-02-27T01:37:17;3.20;99.90
3310;DHT22;1667;53.238;10.394;2023-02-27T01:42:18;3.20;99.90
3310;DHT22;1667;53.238;10.394;2023-02-27T01:47:17;3.20;99.90
3310;DHT22;1667;53.238;10.394;2023-02-27T01:52:17;3.20;99.90
3310;DHT22;1667;53.238;10.394;2023-02-27T01:57:16;3.10;99.90
3310;DHT22;1667;53.238;10.394;2023-02-27T02:02:20;3.10;99.90
3310;DHT22;1667;53.238;10.394;2023-02-27T02:07:24;3.30;99.90
3310;DHT22;1667;53.238;10.394;2023-02-27T02:12:25;3.00;99.90
3310;DHT22;1667;53.238;10.394;2023-02-27T02:17:30;3.30;99.90
3310;DHT22;1667;53.238;10.394;2023-02-27T02:28:35;2.90;99.90
3310;DHT22;1667;53.238;10.394;2023-02-27T02:44:53;3.00;99.90
3310;DHT22;1667;53.238;10.394;2023-02-27T02:49:56;2.80;99.90
3310;DHT22;1667;53.238;10.394;2023-02-27T02:55:07;2.80;99.90
3310;DHT22;1667;53.238;10.394;2023-02-27T03:00:12;2.80;99.90
3310;DHT22;1667;53.238;10.394;2023-02-27T03:05:17;2.80;99.90
3310;DHT22;1667;53.238;10.394;2023-02-27T03:10:23;2.80;99.90
3310;DHT22;1667;53.238;10.394;2023-02-27T03:15:26;2.80;99.90
3310;DHT22;1667;53.238;10.394;2023-02-27T03:20:30;2.70;99.90
3310;DHT22;1667;53.238;10.394;2023-02-27T03:25:31;2.80;99.90
3310;DHT22;1667;53.238;10.394;2023-02-27T03:30:35;3.10;99.90
3310;DHT22;1667;53.238;10.394;2023-02-27T03:35:42;2.80;99.90
3310;DHT22;1667;53.238;10.394;2023-02-27T03:40:48;3.00;99.90
3310;DHT22;1667;53.238;10.394;2023-02-27T03:46:02;2.70;99.90
3310;DHT22;1667;53.238;10.394;2023-02-27T03:51:02;2.80;99.90
3310;DHT22;1667;53.238;10.394;2023-02-27T03:56:05;2.70;99.90
3310;DHT22;1667;53.238;10.394;2023-02-27T04:01:06;2.70;99.90
3310;DHT22;1667;53.238;10.394;2023-02-27T04:06:06;2.60;99.90
3310;DHT22;1667;53.238;10.394;2023-02-27T04:11:34;2.60;99.90
3310;DHT22;1667;53.238;10.394;2023-02-27T04:16:51;2.60;99.90
3310;DHT22;1667;53.238;10.394;2023-02-27T04:22:03;2.50;99.90
3310;DHT22;1667;53.238;10.394;2023-02-27T04:27:13;2.50;99.90
3310;DHT22;1667;53.238;10.394;2023-02-27T04:32:20;2.60;99.90
3310;DHT22;1667;53.238;10.394;2023-02-27T04:37:25;2.50;99.90
3310;DHT22;1667;53.238;10.394;2023-02-27T04:42:29;2.50;99.90
3310;DHT22;1667;53.238;10.394;2023-02-27T04:47:31;2.40;99.90
3310;DHT22;1667;53.238;10.394;2023-02-27T04:52:35;2.40;99.90
3310;DHT22;1667;53.238;10.394;2023-02-27T04:57:39;2.40;99.90
3310;DHT22;1667;53.238;10.394;2023-02-27T05:02:42;2.70;99.90
3310;DHT22;1667;53.238;10.394;2023-02-27T05:07:48;2.40;99.90
3310;DHT22;1667;53.238;10.394;2023-02-27T05:12:50;2.70;99.90
3310;DHT22;1667;53.238;10.394;2023-02-27T05:17:57;2.40;99.90
3310;DHT22;1667;53.238;10.394;2023-02-27T05:22:59;2.40;99.90
3310;DHT22;1667;53.238;10.394;2023-02-27T05:28:07;2.40;99.90
3310;DHT22;1667;53.238;10.394;2023-02-27T05:33:13;2.60;99.90
3310;DHT22;1667;53.238;10.394;2023-02-27T05:38:16;2.30;99.90
3310;DHT22;1667;53.238;10.394;2023-02-27T05:43:21;2.20;99.90
3310;DHT22;1667;53.238;10.394;2023-02-27T05:48:25;2.20;99.90
3310;DHT22;1667;53.238;10.394;2023-02-27T05:53:29;2.20;99.90
3310;DHT22;1667;53.238;10.394;2023-02-27T05:58:34;2.20;99.90
3310;DHT22;1667;53.238;10.394;2023-02-27T06:03:35;2.20;99.90
3310;DHT22;1667;53.238;10.394;2023-02-27T06:08:34;2.20;99.90
3310;DHT22;1667;53.238;10.394;2023-02-27T06:13:34;2.20;99.90
3310;DHT22;1667;53.238;10.394;2023-02-27T06:18:33;2.20;99.90
3310;DHT22;1667;53.238;10.394;2023-02-27T06:23:31;2.30;99.90
3310;DHT22;1667;53.238;10.394;2023-02-27T06:28:30;2.00;99.90
3310;DHT22;1667;53.238;10.394;2023-02-27T06:33:30;2.10;99.90
3310;DHT22;1667;53.238;10.394;2023-02-27T06:38:29;2.00;99.90
3310;DHT22;1667;53.238;10.394;2023-02-27T06:43:27;2.00;99.90
3310;DHT22;1667;53.238;10.394;2023-02-27T06:48:26;2.00;99.90
3310;DHT22;1667;53.238;10.394;2023-02-27T06:53:26;2.00;99.90
3310;DHT22;1667;53.238;10.394;2023-02-27T06:58:25;2.00;99.90
3310;DHT22;1667;53.238;10.394;2023-02-27T07:03:24;2.10;99.90
3310;DHT22;1667;53.238;10.394;2023-02-27T07:08:22;2.50;99.90
3310;DHT22;1667;53.238;10.394;2023-02-27T07:13:22;2.20;99.90
3310;DHT22;1667;53.238;10.394;2023-02-27T07:18:21;2.30;99.90
3310;DHT22;1667;53.238;10.394;2023-02-27T07:23:21;2.50;99.90
3310;DHT22;1667;53.238;10.394;2023-02-27T07:28:19;2.50;99.90
3310;DHT22;1667;53.238;10.394;2023-02-27T07:33:19;2.60;99.90
3310;DHT22;1667;53.238;10.394;2023-02-27T07:38:18;2.70;99.90
3310;DHT22;1667;53.238;10.394;2023-02-27T07:43:18;2.80;99.90
3310;DHT22;1667;53.238;10.394;2023-02-27T07:48:18;2.80;99.90
3310;DHT22;1667;53.238;10.394;2023-02-27T07:59:23;2.90;99.90
3310;DHT22;1667;53.238;10.394;2023-02-27T08:04:22;2.90;99.90
3310;DHT22;1667;53.238;10.394;2023-02-27T08:09:21;3.00;99.90
3310;DHT22;1667;53.238;10.394;2023-02-27T08:14:19;3.20;99.90
3310;DHT22;1667;53.238;10.394;2023-02-27T08:19:18;3.20;99.90
3310;DHT22;1667;53.238;10.394;2023-02-27T08:24:18;3.30;99.90
3310;DHT22;1667;53.238;10.394;2023-02-27T08:29:16;3.40;99.90
3310;DHT22;1667;53.238;10.394;2023-02-27T08:34:14;3.50;99.90
3310;DHT22;1667;53.238;10.394;2023-02-27T08:39:13;3.50;99.90
3310;DHT22;1667;53.238;10.394;2023-02-27T08:44:13;3.70;99.90
3310;DHT22;1667;53.238;10.394;2023-02-27T08:49:12;3.80;99.90
3310;DHT22;1667;53.238;10.394;2023-02-27T08:54:10;4.00;99.90
3310;DHT22;1667;53.238;10.394;2023-02-27T08:59:10;4.40;99.90
3310;DHT22;1667;53.238;10.394;2023-02-27T09:04:10;4.20;99.90
3310;DHT22;1667;53.238;10.394;2023-02-27T09:09:09;4.30;99.90
3310;DHT22;1667;53.238;10.394;2023-02-27T09:14:07;4.50;99.90
3310;DHT22;1667;53.238;10.394;2023-02-27T09:19:06;4.60;99.90
3310;DHT22;1667;53.238;10.394;2023-02-27T09:24:06;4.70;99.90
3310;DHT22;1667;53.238;10.394;2023-02-27T09:29:16;4.80;99.90
3310;DHT22;1667;53.238;10.394;2023-02-27T09:34:15;5.30;99.90
3310;DHT22;1667;53.238;10.394;2023-02-27T09:39:15;5.30;99.90
3310;DHT22;1667;53.238;10.394;2023-02-27T09:44:25;5.80;99.90
3310;DHT22;1667;53.238;10.394;2023-02-27T09:49:50;5.70;99.90
3310;DHT22;1667;53.238;10.394;2023-02-27T09:54:52;6.10;99.90
3310;DHT22;1667;53.238;10.394;2023-02-27T09:59:57;6.10;99.90
3310;DHT22;1667;53.238;10.394;2023-02-27T10:05:02;6.30;99.90
3310;DHT22;1667;53.238;10.394;2023-02-27T10:10:12;6.60;99.90
3310;DHT22;1667;53.238;10.394;2023-02-27T10:15:22;6.60;99.90
3310;DHT22;1667;53.238;10.394;2023-02-27T10:20:26;6.80;99.90
3310;DHT22;1667;53.238;10.394;2023-02-27T10:25:28;7.00;99.90
3310;DHT22;1667;53.238;10.394;2023-02-27T10:30:28;7.10;99.90
3310;DHT22;1667;53.238;10.394;2023-02-27T10:35:33;7.40;99.90
3310;DHT22;1667;53.238;10.394;2023-02-27T10:40:35;7.70;99.90
3310;DHT22;1667;53.238;10.394;2023-02-27T10:45:36;8.10;99.90
3310;DHT22;1667;53.238;10.394;2023-02-27T10:50:36;7.80;99.90
3310;DHT22;1667;53.238;10.394;2023-02-27T10:55:36;7.70;99.90
3310;DHT22;1667;53.238;10.394;2023-02-27T11:00:42;7.60;99.90
3310;DHT22;1667;53.238;10.394;2023-02-27T11:05:41;7.70;99.90
3310;DHT22;1667;53.238;10.394;2023-02-27T11:10:55;7.50;99.90
3310;DHT22;1667;53.238;10.394;2023-02-27T11:16:04;7.60;99.90
3310;DHT22;1667;53.238;10.394;2023-02-27T11:21:21;7.90;99.90
3310;DHT22;1667;53.238;10.394;2023-02-27T11:26:29;8.10;99.90
3310;DHT22;1667;53.238;10.394;2023-02-27T11:31:30;8.30;99.90
3310;DHT22;1667;53.238;10.394;2023-02-27T11:36:38;8.60;99.90
3310;DHT22;1667;53.238;10.394;2023-02-27T11:41:39;8.60;99.90
3310;DHT22;1667;53.238;10.394;2023-02-27T11:46:41;8.70;99.90
3310;DHT22;1667;53.238;10.394;2023-02-27T11:51:50;8.50;99.90
3310;DHT22;1667;53.238;10.394;2023-02-27T11:56:57;8.40;99.90
3310;DHT22;1667;53.238;10.394;2023-02-27T12:02:01;8.50;99.90
3310;DHT22;1667;53.238;10.394;2023-02-27T12:07:03;8.50;99.90
3310;DHT22;1667;53.238;10.394;2023-02-27T12:12:12;8.70;99.90
3310;DHT22;1667;53.238;10.394;2023-02-27T12:17:17;8.70;99.90
3310;DHT22;1667;53.238;10.394;2023-02-27T12:22:21;9.10;99.90
3310;DHT22;1667;53.238;10.394;2023-02-27T12:27:24;8.60;99.90
3310;DHT22;1667;53.238;10.394;2023-02-27T12:32:32;9.10;99.90
3310;DHT22;1667;53.238;10.394;2023-02-27T12:37:36;8.30;99.90
3310;DHT22;1667;53.238;10.394;2023-02-27T12:42:47;8.10;99.90
3310;DHT22;1667;53.238;10.394;2023-02-27T12:47:57;8.30;99.90
3310;DHT22;1667;53.238;10.394;2023-02-27T12:53:03;8.30;99.90
3310;DHT22;1667;53.238;10.394;2023-02-27T12:58:31;8.20;99.90
3310;DHT22;1667;53.238;10.394;2023-02-27T13:03:36;8.20;99.90
3310;DHT22;1667;53.238;10.394;2023-02-27T13:08:57;8.30;99.90
3310;DHT22;1667;53.238;10.394;2023-02-27T13:14:07;8.30;99.90
3310;DHT22;1667;53.238;10.394;2023-02-27T13:19:13;8.40;99.90
3310;DHT22;1667;53.238;10.394;2023-02-27T13:24:21;8.50;99.90
3310;DHT22;1667;53.238;10.394;2023-02-27T13:29:30;8.20;99.90
3310;DHT22;1667;53.238;10.394;2023-02-27T13:34:35;8.20;99.90
3310;DHT22;1667;53.238;10.394;2023-02-27T13:39:51;8.30;99.90
3310;DHT22;1667;53.238;10.394;2023-02-27T13:44:54;8.20;99.90
3310;DHT22;1667;53.238;10.394;2023-02-27T13:49:53;8.40;99.90
3310;DHT22;1667;53.238;10.394;2023-02-27T13:54:52;8.50;99.90
3310;DHT22;1667;53.238;10.394;2023-02-27T13:59:59;8.50;99.90
3310;DHT22;1667;53.238;10.394;2023-02-27T14:05:14;8.70;99.90
3310;DHT22;1667;53.238;10.394;2023-02-27T14:10:20;9.00;99.90
3310;DHT22;1667;53.238;10.394;2023-02-27T14:15:56;8.70;99.90
3310;DHT22;1667;53.238;10.394;2023-02-27T14:20:56;8.50;99.90
3310;DHT22;1667;53.238;10.394;2023-02-27T14:25:58;8.30;99.90
3310;DHT22;1667;53.238;10.394;2023-02-27T14:31:02;8.40;99.90
3310;DHT22;1667;53.238;10.394;2023-02-27T14:36:04;8.40;99.90
3310;DHT22;1667;53.238;10.394;2023-02-27T14:41:19;8.50;99.90
3310;DHT22;1667;53.238;10.394;2023-02-27T14:46:24;8.50;99.90
3310;DHT22;1667;53.238;10.394;2023-02-27T14:51:25;8.60;99.90
3310;DHT22;1667;53.238;10.394;2023-02-27T14:56:26;8.30;99.90
3310;DHT22;1667;53.238;10.394;2023-02-27T15:01:27;8.30;99.90
3310;DHT22;1667;53.238;10.394;2023-02-27T15:06:35;8.40;99.90
3310;DHT22;1667;53.238;10.394;2023-02-27T15:11:39;8.30;99.90
3310;DHT22;1667;53.238;10.394;2023-02-27T15:16:45;8.10;99.90
3310;DHT22;1667;53.238;10.394;2023-02-27T15:21:46;7.90;99.90
3310;DHT22;1667;53.238;10.394;2023-02-27T15:26:47;7.70;99.90
3310;DHT22;1667;53.238;10.394;2023-02-27T15:31:49;7.60;99.90
3310;DHT22;1667;53.238;10.394;2023-02-27T15:36:51;7.70;99.90
3310;DHT22;1667;53.238;10.394;2023-02-27T15:41:52;7.80;99.90
3310;DHT22;1667;53.238;10.394;2023-02-27T15:46:53;7.90;99.90
3310;DHT22;1667;53.238;10.394;2023-02-27T15:52:10;7.90;99.90
3310;DHT22;1667;53.238;10.394;2023-02-27T15:57:09;7.70;99.90
3310;DHT22;1667;53.238;10.394;2023-02-27T16:02:15;7.70;99.90
3310;DHT22;1667;53.238;10.394;2023-02-27T16:07:17;7.80;99.90
3310;DHT22;1667;53.238;10.394;2023-02-27T16:12:26;7.90;99.90
3310;DHT22;1667;53.238;10.394;2023-02-27T16:17:29;8.10;99.90
3310;DHT22;1667;53.238;10.394;2023-02-27T16:22:28;8.30;99.90
3310;DHT22;1667;53.238;10.394;2023-02-27T16:27:27;8.00;99.90
3310;DHT22;1667;53.238;10.394;2023-02-27T16:32:33;7.90;99.90
3310;DHT22;1667;53.238;10.394;2023-02-27T16:37:36;8.00;99.90
3310;DHT22;1667;53.238;10.394;2023-02-27T16:42:34;8.00;99.90
3310;DHT22;1667;53.238;10.394;2023-02-27T16:47:35;7.90;99.90
3310;DHT22;1667;53.238;10.394;2023-02-27T16:52:34;7.90;99.90
3310;DHT22;1667;53.238;10.394;2023-02-27T16:57:32;7.90;99.90
3310;DHT22;1667;53.238;10.394;2023-02-27T17:02:31;7.90;99.90
3310;DHT22;1667;53.238;10.394;2023-02-27T17:07:31;7.80;99.90
3310;DHT22;1667;53.238;10.394;2023-02-27T17:12:30;7.80;99.90
3310;DHT22;1667;53.238;10.394;2023-02-27T17:17:28;7.80;99.90
3310;DHT22;1667;53.238;10.394;2023-02-27T17:22:26;7.80;99.90
3310;DHT22;1667;53.238;10.394;2023-02-27T17:27:26;7.70;99.90
3310;DHT22;1667;53.238;10.394;2023-02-27T17:32:25;7.60;99.90
3310;DHT22;1667;53.238;10.394;2023-02-27T17:37:23;7.60;99.90
3310;DHT22;1667;53.238;10.394;2023-02-27T17:42:22;7.50;99.90
3310;DHT22;1667;53.238;10.394;2023-02-27T17:47:48;7.50;99.90
3310;DHT22;1667;53.238;10.394;2023-02-27T17:52:47;7.40;99.90
3310;DHT22;1667;53.238;10.394;2023-02-27T18:04:36;7.40;99.90
3310;DHT22;1667;53.238;10.394;2023-02-27T18:09:34;7.30;99.90
3310;DHT22;1667;53.238;10.394;2023-02-27T18:14:33;7.20;99.90
3310;DHT22;1667;53.238;10.394;2023-02-27T18:19:32;7.10;99.90
3310;DHT22;1667;53.238;10.394;2023-02-27T18:24:31;7.10;99.90
3310;DHT22;1667;53.238;10.394;2023-02-27T18:36:24;6.90;99.90
3310;DHT22;1667;53.238;10.394;2023-02-27T18:41:24;6.80;99.90
3310;DHT22;1667;53.238;10.394;2023-02-27T18:53:17;6.70;99.90
3310;DHT22;1667;53.238;10.394;2023-02-27T18:58:18;6.60;99.90
3310;DHT22;1667;53.238;10.394;2023-02-27T19:03:16;6.80;99.90
3310;DHT22;1667;53.238;10.394;2023-02-27T19:08:15;6.60;99.90
3310;DHT22;1667;53.238;10.394;2023-02-27T19:13:14;6.60;99.90
3310;DHT22;1667;53.238;10.394;2023-02-27T19:18:14;6.60;99.90
3310;DHT22;1667;53.238;10.394;2023-02-27T19:23:12;6.50;99.90
3310;DHT22;1667;53.238;10.394;2023-02-27T19:28:11;6.40;99.90
3310;DHT22;1667;53.238;10.394;2023-02-27T19:33:10;6.40;99.90
3310;DHT22;1667;53.238;10.394;2023-02-27T19:38:09;6.40;99.90
3310;DHT22;1667;53.238;10.394;2023-02-27T19:43:08;6.30;99.90
3310;DHT22;1667;53.238;10.394;2023-02-27T19:48:06;6.40;99.90
3310;DHT22;1667;53.238;10.394;2023-02-27T19:53:05;6.40;99.90
3310;DHT22;1667;53.238;10.394;2023-02-27T19:58:05;6.30;99.90
3310;DHT22;1667;53.238;10.394;2023-02-27T20:03:04;6.30;99.90
3310;DHT22;1667;53.238;10.394;2023-02-27T20:08:03;6.30;99.90
3310;DHT22;1667;53.238;10.394;2023-02-27T20:13:01;6.30;99.90
3310;DHT22;1667;53.238;10.394;2023-02-27T20:18:02;6.30;99.90
3310;DHT22;1667;53.238;10.394;2023-02-27T20:23:00;6.30;99.90
3310;DHT22;1667;53.238;10.394;2023-02-27T20:27:59;6.30;99.90
3310;DHT22;1667;53.238;10.394;2023-02-27T20:32:58;6.50;99.90
3310;DHT22;1667;53.238;10.394;2023-02-27T20:37:58;6.60;99.90
3310;DHT22;1667;53.238;10.394;2023-02-27T20:42:57;6.30;99.90
3310;DHT22;1667;53.238;10.394;2023-02-27T20:47:55;6.20;99.90
3310;DHT22;1667;53.238;10.394;2023-02-27T20:52:53;6.20;99.90
3310;DHT22;1667;53.238;10.394;2023-02-27T20:57:53;6.40;99.90
3310;DHT22;1667;53.238;10.394;2023-02-27T21:02:51;6.30;99.90
3310;DHT22;1667;53.238;10.394;2023-02-27T21:07:50;5.90;99.90
3310;DHT22;1667;53.238;10.394;2023-02-27T21:12:48;5.90;99.90
3310;DHT22;1667;53.238;10.394;2023-02-27T21:17:48;5.90;99.90
3310;DHT22;1667;53.238;10.394;2023-02-27T21:22:47;5.90;99.90
3310;DHT22;1667;53.238;10.394;2023-02-27T21:27:45;5.90;99.90
3310;DHT22;1667;53.238;10.394;2023-02-27T21:32:44;5.90;99.90
3310;DHT22;1667;53.238;10.394;2023-02-27T21:37:43;5.70;99.90
3310;DHT22;1667;53.238;10.394;2023-02-27T21:42:42;5.70;99.90
3310;DHT22;1667;53.238;10.394;2023-02-27T21:47:41;5.70;99.90
3310;DHT22;1667;53.238;10.394;2023-02-27T21:52:40;5.70;99.90
3310;DHT22;1667;53.238;10.394;2023-02-27T21:57:40;5.60;99.90
3310;DHT22;1667;53.238;10.394;2023-02-27T22:02:39;5.50;99.90
3310;DHT22;1667;53.238;10.394;2023-02-27T22:07:37;5.40;99.90
3310;DHT22;1667;53.238;10.394;2023-02-27T22:12:36;5.40;99.90
3310;DHT22;1667;53.238;10.394;2023-02-27T22:17:35;5.40;99.90
3310;DHT22;1667;53.238;10.394;2023-02-27T22:22:34;5.70;99.90
3310;DHT22;1667;53.238;10.394;2023-02-27T22:27:32;5.30;99.90
3310;DHT22;1667;53.238;10.394;2023-02-27T22:32:31;5.30;99.90
3310;DHT22;1667;53.238;10.394;2023-02-27T22:37:30;5.20;99.90
3310;DHT22;1667;53.238;10.394;2023-02-27T22:42:30;5.20;99.90
3310;DHT22;1667;53.238;10.394;2023-02-27T22:47:28;5.10;99.90
3310;DHT22;1667;53.238;10.394;2023-02-27T22:52:27;5.10;99.90
3310;DHT22;1667;53.238;10.394;2023-02-27T22:57:26;5.20;99.90
3310;DHT22;1667;53.238;10.394;2023-02-27T23:02:25;5.00;99.90
3310;DHT22;1667;53.238;10.394;2023-02-27T23:07:29;5.30;99.90
3310;DHT22;1667;53.238;10.394;2023-02-27T23:12:30;5.30;99.90
3310;DHT22;1667;53.238;10.394;2023-02-27T23:17:29;4.80;99.90
3310;DHT22;1667;53.238;10.394;2023-02-27T23:22:29;4.80;99.90
3310;DHT22;1667;53.238;10.394;2023-02-27T23:27:30;4.80;99.90
3310;DHT22;1667;53.238;10.394;2023-02-27T23:32:29;4.70;99.90
3310;DHT22;1667;53.238;10.394;2023-02-27T23:37:27;5.00;99.90
3310;DHT22;1667;53.238;10.394;2023-02-27T23:42:28;5.00;99.90
3310;DHT22;1667;53.238;10.394;2023-02-27T23:47:28;4.60;99.90
3310;DHT22;1667;53.238;10.394;2023-02-27T23:52:38;4.70;99.90
3310;DHT22;1667;53.238;10.394;2023-02-27T23:57:37;4.50;99.90
